sensor_id;sensor_type;location;lat;lon;timestamp;temperature;humidity
21627;DHT22;10975;47.872;12.972;2024-03-02T00:00:13;6.90;99.90
21627;DHT22;10975;47.872;12.972;2024-03-02T00:02:44;6.90;99.90
21627;DHT22;10975;47.872;12.972;2024-03-02T00:05:12;6.90;99.90
21627;DHT22;10975;47.872;12.972;2024-03-02T00:07:44;6.80;99.90
21627;DHT22;10975;47.872;12.972;2024-03-02T00:10:14;6.90;99.90
21627;DHT22;10975;47.872;12.972;2024-03-02T00:12:42;6.90;99.90
21627;DHT22;10975;47.872;12.972;2024-03-02T00:15:45;6.80;99.90
21627;DHT22;10975;47.872;12.972;2024-03-02T00:18:18;6.80;99.90
21627;DHT22;10975;47.872;12.972;2024-03-02T00:20:45;6.80;99.90
21627;DHT22;10975;47.872;12.972;2024-03-02T00:23:15;6.80;99.90
21627;DHT22;10975;47.872;12.972;2024-03-02T00:25:53;6.80;99.90
21627;DHT22;10975;47.872;12.972;2024-03-02T00:28:23;6.80;99.90
21627;DHT22;10975;47.872;12.972;2024-03-02T00:31:01;6.80;99.90
21627;DHT22;10975;47.872;12.972;2024-03-02T00:33:33;6.80;99.90
21627;DHT22;10975;47.872;12.972;2024-03-02T00:36:02;6.80;99.90
21627;DHT22;10975;47.872;12.972;2024-03-02T00:38:34;6.90;99.90
21627;DHT22;10975;47.872;12.972;2024-03-02T00:41:05;6.80;99.90
21627;DHT22;10975;47.872;12.972;2024-03-02T00:43:57;6.90;99.90
21627;DHT22;10975;47.872;12.972;2024-03-02T00:46:24;6.90;99.90
21627;DHT22;10975;47.872;12.972;2024-03-02T00:48:58;6.80;99.90
21627;DHT22;10975;47.872;12.972;2024-03-02T00:51:28;6.90;99.90
21627;DHT22;10975;47.872;12.972;2024-03-02T00:53:58;6.90;99.90
21627;DHT22;10975;47.872;12.972;2024-03-02T00:56:25;6.90;99.90
21627;DHT22;10975;47.872;12.972;2024-03-02T00:58:53;6.90;99.90
21627;DHT22;10975;47.872;12.972;2024-03-02T01:01:20;6.80;99.90
21627;DHT22;10975;47.872;12.972;2024-03-02T01:03:47;6.80;99.90
21627;DHT22;10975;47.872;12.972;2024-03-02T01:06:15;6.80;99.90
21627;DHT22;10975;47.872;12.972;2024-03-02T01:08:42;6.80;99.90
21627;DHT22;10975;47.872;12.972;2024-03-02T01:11:09;6.80;99.90
21627;DHT22;10975;47.872;12.972;2024-03-02T01:13:36;6.80;99.90
21627;DHT22;10975;47.872;12.972;2024-03-02T01:16:03;6.80;99.90
21627;DHT22;10975;47.872;12.972;2024-03-02T01:18:30;6.80;99.90
21627;DHT22;10975;47.872;12.972;2024-03-02T01:20:57;6.80;99.90
21627;DHT22;10975;47.872;12.972;2024-03-02T01:23:24;6.80;99.90
21627;DHT22;10975;47.872;12.972;2024-03-02T01:25:52;6.80;99.90
21627;DHT22;10975;47.872;12.972;2024-03-02T01:28:19;6.80;99.90
21627;DHT22;10975;47.872;12.972;2024-03-02T01:30:48;6.90;99.90
21627;DHT22;10975;47.872;12.972;2024-03-02T01:33:17;6.90;99.90
21627;DHT22;10975;47.872;12.972;2024-03-02T01:35:44;6.90;99.90
21627;DHT22;10975;47.872;12.972;2024-03-02T01:38:11;6.90;99.90
21627;DHT22;10975;47.872;12.972;2024-03-02T01:40:38;6.90;99.90
21627;DHT22;10975;47.872;12.972;2024-03-02T01:43:06;6.90;99.90
21627;DHT22;10975;47.872;12.972;2024-03-02T01:45:34;6.90;99.90
21627;DHT22;10975;47.872;12.972;2024-03-02T01:48:06;6.90;99.90
21627;DHT22;10975;47.872;12.972;2024-03-02T01:50:34;6.90;99.90
21627;DHT22;10975;47.872;12.972;2024-03-02T01:53:01;6.90;99.90
21627;DHT22;10975;47.872;12.972;2024-03-02T01:55:31;6.80;99.90
21627;DHT22;10975;47.872;12.972;2024-03-02T01:57:59;6.90;99.90
21627;DHT22;10975;47.872;12.972;2024-03-02T02:00:26;6.90;99.90
21627;DHT22;10975;47.872;12.972;2024-03-02T02:02:54;6.80;99.90
21627;DHT22;10975;47.872;12.972;2024-03-02T02:05:21;6.80;99.90
21627;DHT22;10975;47.872;12.972;2024-03-02T02:07:48;6.80;99.90
21627;DHT22;10975;47.872;12.972;2024-03-02T02:10:15;6.80;99.90
21627;DHT22;10975;47.872;12.972;2024-03-02T02:12:42;6.80;99.90
21627;DHT22;10975;47.872;12.972;2024-03-02T02:15:23;6.80;99.90
21627;DHT22;10975;47.872;12.972;2024-03-02T02:17:50;6.70;99.90
21627;DHT22;10975;47.872;12.972;2024-03-02T02:20:17;6.70;99.90
21627;DHT22;10975;47.872;12.972;2024-03-02T02:23:03;6.70;99.90
21627;DHT22;10975;47.872;12.972;2024-03-02T02:25:31;6.70;99.90
21627;DHT22;10975;47.872;12.972;2024-03-02T02:27:58;6.70;99.90
21627;DHT22;10975;47.872;12.972;2024-03-02T02:30:27;6.80;99.90
21627;DHT22;10975;47.872;12.972;2024-03-02T02:32:54;6.70;99.90
21627;DHT22;10975;47.872;12.972;2024-03-02T02:35:22;6.70;99.90
21627;DHT22;10975;47.872;12.972;2024-03-02T02:37:49;6.60;99.90
21627;DHT22;10975;47.872;12.972;2024-03-02T02:40:16;6.60;99.90
21627;DHT22;10975;47.872;12.972;2024-03-02T02:42:45;6.50;99.90
21627;DHT22;10975;47.872;12.972;2024-03-02T02:45:12;6.50;99.90
21627;DHT22;10975;47.872;12.972;2024-03-02T02:47:41;6.50;99.90
21627;DHT22;10975;47.872;12.972;2024-03-02T02:50:09;6.50;99.90
21627;DHT22;10975;47.872;12.972;2024-03-02T02:52:38;6.50;99.90
21627;DHT22;10975;47.872;12.972;2024-03-02T02:55:08;6.50;99.90
21627;DHT22;10975;47.872;12.972;2024-03-02T02:57:35;6.40;99.90
21627;DHT22;10975;47.872;12.972;2024-03-02T03:00:09;6.40;99.90
21627;DHT22;10975;47.872;12.972;2024-03-02T03:02:46;6.30;99.90
21627;DHT22;10975;47.872;12.972;2024-03-02T03:05:16;6.30;99.90
21627;DHT22;10975;47.872;12.972;2024-03-02T03:07:43;6.30;99.90
21627;DHT22;10975;47.872;12.972;2024-03-02T03:10:15;6.30;99.90
21627;DHT22;10975;47.872;12.972;2024-03-02T03:12:42;6.30;99.90
21627;DHT22;10975;47.872;12.972;2024-03-02T03:15:10;6.20;99.90
21627;DHT22;10975;47.872;12.972;2024-03-02T03:17:41;6.10;99.90
21627;DHT22;10975;47.872;12.972;2024-03-02T03:20:08;6.10;99.90
21627;DHT22;10975;47.872;12.972;2024-03-02T03:22:39;6.10;99.90
21627;DHT22;10975;47.872;12.972;2024-03-02T03:25:06;6.10;99.90
21627;DHT22;10975;47.872;12.972;2024-03-02T03:27:37;6.00;99.90
21627;DHT22;10975;47.872;12.972;2024-03-02T03:30:04;6.00;99.90
21627;DHT22;10975;47.872;12.972;2024-03-02T03:32:33;6.00;99.90
21627;DHT22;10975;47.872;12.972;2024-03-02T03:34:59;6.00;99.90
21627;DHT22;10975;47.872;12.972;2024-03-02T03:37:26;6.00;99.90
21627;DHT22;10975;47.872;12.972;2024-03-02T03:40:00;6.00;99.90
21627;DHT22;10975;47.872;12.972;2024-03-02T03:42:27;6.00;99.90
21627;DHT22;10975;47.872;12.972;2024-03-02T03:44:54;6.00;99.90
21627;DHT22;10975;47.872;12.972;2024-03-02T03:47:21;5.90;99.90
21627;DHT22;10975;47.872;12.972;2024-03-02T03:49:48;5.90;99.90
21627;DHT22;10975;47.872;12.972;2024-03-02T03:52:14;5.90;99.90
21627;DHT22;10975;47.872;12.972;2024-03-02T03:54:41;5.80;99.90
21627;DHT22;10975;47.872;12.972;2024-03-02T03:57:09;5.70;99.90
21627;DHT22;10975;47.872;12.972;2024-03-02T03:59:36;5.70;99.90
21627;DHT22;10975;47.872;12.972;2024-03-02T04:02:04;5.50;99.90
21627;DHT22;10975;47.872;12.972;2024-03-02T04:04:31;5.40;99.90
21627;DHT22;10975;47.872;12.972;2024-03-02T04:06:57;5.40;99.90
21627;DHT22;10975;47.872;12.972;2024-03-02T04:09:24;5.40;99.90
21627;DHT22;10975;47.872;12.972;2024-03-02T04:11:52;5.40;99.90
21627;DHT22;10975;47.872;12.972;2024-03-02T04:14:19;5.40;99.90
21627;DHT22;10975;47.872;12.972;2024-03-02T04:16:47;5.40;99.90
21627;DHT22;10975;47.872;12.972;2024-03-02T04:19:14;5.40;99.90
21627;DHT22;10975;47.872;12.972;2024-03-02T04:21:40;5.30;99.90
21627;DHT22;10975;47.872;12.972;2024-03-02T04:24:07;5.20;99.90
21627;DHT22;10975;47.872;12.972;2024-03-02T04:26:34;5.20;99.90
21627;DHT22;10975;47.872;12.972;2024-03-02T04:29:01;5.00;99.90
21627;DHT22;10975;47.872;12.972;2024-03-02T04:31:28;5.00;99.90
21627;DHT22;10975;47.872;12.972;2024-03-02T04:33:55;5.00;99.90
21627;DHT22;10975;47.872;12.972;2024-03-02T04:36:22;4.90;99.90
21627;DHT22;10975;47.872;12.972;2024-03-02T04:38:50;4.90;99.90
21627;DHT22;10975;47.872;12.972;2024-03-02T04:41:17;4.90;99.90
21627;DHT22;10975;47.872;12.972;2024-03-02T04:43:43;4.90;99.90
21627;DHT22;10975;47.872;12.972;2024-03-02T04:46:10;4.80;99.90
21627;DHT22;10975;47.872;12.972;2024-03-02T04:48:37;4.70;99.90
21627;DHT22;10975;47.872;12.972;2024-03-02T04:51:04;4.50;99.90
21627;DHT22;10975;47.872;12.972;2024-03-02T04:53:31;4.50;99.90
21627;DHT22;10975;47.872;12.972;2024-03-02T04:55:58;4.50;99.90
21627;DHT22;10975;47.872;12.972;2024-03-02T04:58:44;4.40;99.90
21627;DHT22;10975;47.872;12.972;2024-03-02T05:01:11;4.30;99.90
21627;DHT22;10975;47.872;12.972;2024-03-02T05:03:38;4.20;99.90
21627;DHT22;10975;47.872;12.972;2024-03-02T05:06:05;4.10;99.90
21627;DHT22;10975;47.872;12.972;2024-03-02T05:08:32;3.90;99.90
21627;DHT22;10975;47.872;12.972;2024-03-02T05:10:59;3.80;99.90
21627;DHT22;10975;47.872;12.972;2024-03-02T05:13:46;3.80;99.90
21627;DHT22;10975;47.872;12.972;2024-03-02T05:16:13;3.70;99.90
21627;DHT22;10975;47.872;12.972;2024-03-02T05:18:40;3.80;99.90
21627;DHT22;10975;47.872;12.972;2024-03-02T05:21:07;3.80;99.90
21627;DHT22;10975;47.872;12.972;2024-03-02T05:23:34;3.70;99.90
21627;DHT22;10975;47.872;12.972;2024-03-02T05:26:00;3.70;99.90
21627;DHT22;10975;47.872;12.972;2024-03-02T05:28:27;3.70;99.90
21627;DHT22;10975;47.872;12.972;2024-03-02T05:30:54;3.70;99.90
21627;DHT22;10975;47.872;12.972;2024-03-02T05:33:21;3.70;99.90
21627;DHT22;10975;47.872;12.972;2024-03-02T05:35:49;3.80;99.90
21627;DHT22;10975;47.872;12.972;2024-03-02T05:38:19;3.80;99.90
21627;DHT22;10975;47.872;12.972;2024-03-02T05:40:46;3.70;99.90
21627;DHT22;10975;47.872;12.972;2024-03-02T05:43:12;3.70;99.90
21627;DHT22;10975;47.872;12.972;2024-03-02T05:45:39;3.70;99.90
21627;DHT22;10975;47.872;12.972;2024-03-02T05:48:07;3.70;99.90
21627;DHT22;10975;47.872;12.972;2024-03-02T05:50:34;3.70;99.90
21627;DHT22;10975;47.872;12.972;2024-03-02T05:53:01;3.70;99.90
21627;DHT22;10975;47.872;12.972;2024-03-02T05:55:28;3.60;99.90
21627;DHT22;10975;47.872;12.972;2024-03-02T05:57:55;3.70;99.90
21627;DHT22;10975;47.872;12.972;2024-03-02T06:00:33;3.60;99.90
21627;DHT22;10975;47.872;12.972;2024-03-02T06:03:00;3.60;99.90
21627;DHT22;10975;47.872;12.972;2024-03-02T06:05:27;3.60;99.90
21627;DHT22;10975;47.872;12.972;2024-03-02T06:07:54;3.60;99.90
21627;DHT22;10975;47.872;12.972;2024-03-02T06:10:21;3.50;99.90
21627;DHT22;10975;47.872;12.972;2024-03-02T06:12:48;3.60;99.90
21627;DHT22;10975;47.872;12.972;2024-03-02T06:15:14;3.70;99.90
21627;DHT22;10975;47.872;12.972;2024-03-02T06:17:41;3.80;99.90
21627;DHT22;10975;47.872;12.972;2024-03-02T06:20:08;3.80;99.90
21627;DHT22;10975;47.872;12.972;2024-03-02T06:22:36;3.90;99.90
21627;DHT22;10975;47.872;12.972;2024-03-02T06:25:03;4.00;99.90
21627;DHT22;10975;47.872;12.972;2024-03-02T06:27:30;4.10;99.90
21627;DHT22;10975;47.872;12.972;2024-03-02T06:29:57;4.10;99.90
21627;DHT22;10975;47.872;12.972;2024-03-02T06:32:23;4.20;99.90
21627;DHT22;10975;47.872;12.972;2024-03-02T06:34:51;4.20;99.90
21627;DHT22;10975;47.872;12.972;2024-03-02T06:37:18;4.10;99.90
21627;DHT22;10975;47.872;12.972;2024-03-02T06:39:45;4.10;99.90
21627;DHT22;10975;47.872;12.972;2024-03-02T06:42:12;4.10;99.90
21627;DHT22;10975;47.872;12.972;2024-03-02T06:44:38;4.00;99.90
21627;DHT22;10975;47.872;12.972;2024-03-02T06:47:05;4.10;99.90
21627;DHT22;10975;47.872;12.972;2024-03-02T06:49:32;4.00;99.90
21627;DHT22;10975;47.872;12.972;2024-03-02T06:51:59;4.00;99.90
21627;DHT22;10975;47.872;12.972;2024-03-02T06:54:26;4.10;99.90
21627;DHT22;10975;47.872;12.972;2024-03-02T06:56:53;4.20;99.90
21627;DHT22;10975;47.872;12.972;2024-03-02T06:59:20;4.30;99.90
21627;DHT22;10975;47.872;12.972;2024-03-02T07:01:46;4.40;99.90
21627;DHT22;10975;47.872;12.972;2024-03-02T07:04:13;4.40;99.90
21627;DHT22;10975;47.872;12.972;2024-03-02T07:06:40;4.50;99.90
21627;DHT22;10975;47.872;12.972;2024-03-02T07:09:07;4.60;99.90
21627;DHT22;10975;47.872;12.972;2024-03-02T07:11:37;4.70;99.90
21627;DHT22;10975;47.872;12.972;2024-03-02T07:14:04;4.80;99.90
21627;DHT22;10975;47.872;12.972;2024-03-02T07:16:31;4.90;99.90
21627;DHT22;10975;47.872;12.972;2024-03-02T07:18:59;4.90;99.90
21627;DHT22;10975;47.872;12.972;2024-03-02T07:21:28;5.00;99.90
21627;DHT22;10975;47.872;12.972;2024-03-02T07:23:55;5.00;99.90
21627;DHT22;10975;47.872;12.972;2024-03-02T07:26:22;5.00;99.90
21627;DHT22;10975;47.872;12.972;2024-03-02T07:28:54;5.00;99.90
21627;DHT22;10975;47.872;12.972;2024-03-02T07:31:21;5.00;99.90
21627;DHT22;10975;47.872;12.972;2024-03-02T07:33:48;5.00;99.90
21627;DHT22;10975;47.872;12.972;2024-03-02T07:36:15;4.90;99.90
21627;DHT22;10975;47.872;12.972;2024-03-02T07:38:43;4.90;99.90
21627;DHT22;10975;47.872;12.972;2024-03-02T07:41:11;4.80;99.90
21627;DHT22;10975;47.872;12.972;2024-03-02T07:43:38;4.70;99.90
21627;DHT22;10975;47.872;12.972;2024-03-02T07:46:05;4.70;99.90
21627;DHT22;10975;47.872;12.972;2024-03-02T07:48:32;4.70;99.90
21627;DHT22;10975;47.872;12.972;2024-03-02T07:50:59;4.80;99.90
21627;DHT22;10975;47.872;12.972;2024-03-02T07:53:26;4.80;99.90
21627;DHT22;10975;47.872;12.972;2024-03-02T07:55:53;4.80;99.90
21627;DHT22;10975;47.872;12.972;2024-03-02T07:58:20;4.80;99.90
21627;DHT22;10975;47.872;12.972;2024-03-02T08:00:48;4.80;99.90
21627;DHT22;10975;47.872;12.972;2024-03-02T08:03:18;4.90;99.90
21627;DHT22;10975;47.872;12.972;2024-03-02T08:05:44;5.00;99.90
21627;DHT22;10975;47.872;12.972;2024-03-02T08:08:11;5.10;99.90
21627;DHT22;10975;47.872;12.972;2024-03-02T08:10:38;5.20;99.90
21627;DHT22;10975;47.872;12.972;2024-03-02T08:13:05;5.30;99.90
21627;DHT22;10975;47.872;12.972;2024-03-02T08:15:31;5.50;99.90
21627;DHT22;10975;47.872;12.972;2024-03-02T08:17:58;5.70;99.90
21627;DHT22;10975;47.872;12.972;2024-03-02T08:20:25;5.80;99.90
21627;DHT22;10975;47.872;12.972;2024-03-02T08:22:52;5.80;99.90
21627;DHT22;10975;47.872;12.972;2024-03-02T08:25:21;5.90;99.90
21627;DHT22;10975;47.872;12.972;2024-03-02T08:27:49;6.10;99.90
21627;DHT22;10975;47.872;12.972;2024-03-02T08:30:16;6.30;99.90
21627;DHT22;10975;47.872;12.972;2024-03-02T08:32:44;6.60;99.90
21627;DHT22;10975;47.872;12.972;2024-03-02T08:35:13;6.90;99.90
21627;DHT22;10975;47.872;12.972;2024-03-02T08:37:41;7.10;99.90
21627;DHT22;10975;47.872;12.972;2024-03-02T08:40:09;7.20;99.90
21627;DHT22;10975;47.872;12.972;2024-03-02T08:42:41;7.40;99.90
21627;DHT22;10975;47.872;12.972;2024-03-02T08:45:08;7.70;99.90
21627;DHT22;10975;47.872;12.972;2024-03-02T08:47:35;7.80;99.90
21627;DHT22;10975;47.872;12.972;2024-03-02T08:50:02;8.00;99.90
21627;DHT22;10975;47.872;12.972;2024-03-02T08:52:30;8.10;99.90
21627;DHT22;10975;47.872;12.972;2024-03-02T08:54:57;8.10;99.90
21627;DHT22;10975;47.872;12.972;2024-03-02T08:57:24;8.20;99.90
21627;DHT22;10975;47.872;12.972;2024-03-02T08:59:50;8.30;99.90
21627;DHT22;10975;47.872;12.972;2024-03-02T09:02:17;8.40;99.90
21627;DHT22;10975;47.872;12.972;2024-03-02T09:04:44;8.40;99.90
21627;DHT22;10975;47.872;12.972;2024-03-02T09:07:12;8.40;99.90
21627;DHT22;10975;47.872;12.972;2024-03-02T09:09:38;8.30;99.90
21627;DHT22;10975;47.872;12.972;2024-03-02T09:12:06;8.30;99.90
21627;DHT22;10975;47.872;12.972;2024-03-02T09:14:35;8.40;99.90
21627;DHT22;10975;47.872;12.972;2024-03-02T09:17:03;8.50;99.90
21627;DHT22;10975;47.872;12.972;2024-03-02T09:19:30;8.50;99.90
21627;DHT22;10975;47.872;12.972;2024-03-02T09:21:57;8.60;99.90
21627;DHT22;10975;47.872;12.972;2024-03-02T09:24:25;8.60;99.90
21627;DHT22;10975;47.872;12.972;2024-03-02T09:26:52;8.50;99.90
21627;DHT22;10975;47.872;12.972;2024-03-02T09:29:19;8.60;99.90
21627;DHT22;10975;47.872;12.972;2024-03-02T09:31:47;8.70;99.90
21627;DHT22;10975;47.872;12.972;2024-03-02T09:34:14;8.70;99.90
21627;DHT22;10975;47.872;12.972;2024-03-02T09:36:43;8.70;99.90
21627;DHT22;10975;47.872;12.972;2024-03-02T09:39:10;8.80;99.90
21627;DHT22;10975;47.872;12.972;2024-03-02T09:41:37;8.80;99.90
21627;DHT22;10975;47.872;12.972;2024-03-02T09:44:05;8.80;99.90
21627;DHT22;10975;47.872;12.972;2024-03-02T09:46:32;8.80;99.90
21627;DHT22;10975;47.872;12.972;2024-03-02T09:48:59;8.80;99.90
21627;DHT22;10975;47.872;12.972;2024-03-02T09:51:26;8.90;99.90
21627;DHT22;10975;47.872;12.972;2024-03-02T09:53:55;9.00;99.90
21627;DHT22;10975;47.872;12.972;2024-03-02T09:56:28;9.00;99.90
21627;DHT22;10975;47.872;12.972;2024-03-02T09:58:55;9.10;99.90
21627;DHT22;10975;47.872;12.972;2024-03-02T10:01:22;9.10;99.90
21627;DHT22;10975;47.872;12.972;2024-03-02T10:03:49;9.10;99.90
21627;DHT22;10975;47.872;12.972;2024-03-02T10:06:25;9.20;99.90
21627;DHT22;10975;47.872;12.972;2024-03-02T10:08:53;9.20;99.90
21627;DHT22;10975;47.872;12.972;2024-03-02T10:14:12;9.30;99.90
21627;DHT22;10975;47.872;12.972;2024-03-02T10:16:40;9.40;99.90
21627;DHT22;10975;47.872;12.972;2024-03-02T10:19:23;9.50;99.90
21627;DHT22;10975;47.872;12.972;2024-03-02T10:21:54;9.50;99.90
21627;DHT22;10975;47.872;12.972;2024-03-02T10:24:22;9.50;99.90
21627;DHT22;10975;47.872;12.972;2024-03-02T10:26:50;9.60;99.90
21627;DHT22;10975;47.872;12.972;2024-03-02T10:29:18;9.60;99.90
21627;DHT22;10975;47.872;12.972;2024-03-02T10:31:45;9.60;99.90
21627;DHT22;10975;47.872;12.972;2024-03-02T10:34:13;9.70;99.90
21627;DHT22;10975;47.872;12.972;2024-03-02T10:36:41;9.70;99.90
21627;DHT22;10975;47.872;12.972;2024-03-02T10:39:09;9.80;99.90
21627;DHT22;10975;47.872;12.972;2024-03-02T10:41:37;9.80;99.90
21627;DHT22;10975;47.872;12.972;2024-03-02T10:44:09;9.90;99.90
21627;DHT22;10975;47.872;12.972;2024-03-02T10:46:37;10.00;99.90
21627;DHT22;10975;47.872;12.972;2024-03-02T10:49:05;10.00;99.90
21627;DHT22;10975;47.872;12.972;2024-03-02T10:51:35;10.10;99.90
21627;DHT22;10975;47.872;12.972;2024-03-02T10:54:04;10.20;99.90
21627;DHT22;10975;47.872;12.972;2024-03-02T10:56:42;10.20;99.90
21627;DHT22;10975;47.872;12.972;2024-03-02T11:01:50;10.20;99.90
21627;DHT22;10975;47.872;12.972;2024-03-02T11:04:21;10.20;99.90
21627;DHT22;10975;47.872;12.972;2024-03-02T11:06:51;10.30;99.90
21627;DHT22;10975;47.872;12.972;2024-03-02T11:09:22;10.30;99.90
21627;DHT22;10975;47.872;12.972;2024-03-02T11:12:00;10.40;99.90
21627;DHT22;10975;47.872;12.972;2024-03-02T11:14:30;10.40;99.90
21627;DHT22;10975;47.872;12.972;2024-03-02T11:16:57;10.50;99.90
21627;DHT22;10975;47.872;12.972;2024-03-02T11:19:25;10.60;99.90
21627;DHT22;10975;47.872;12.972;2024-03-02T11:21:52;10.60;99.90
21627;DHT22;10975;47.872;12.972;2024-03-02T11:24:28;10.70;99.90
21627;DHT22;10975;47.872;12.972;2024-03-02T11:27:05;10.90;99.90
21627;DHT22;10975;47.872;12.972;2024-03-02T11:32:03;11.10;99.90
21627;DHT22;10975;47.872;12.972;2024-03-02T11:34:42;11.10;99.90
21627;DHT22;10975;47.872;12.972;2024-03-02T11:37:19;11.10;99.90
21627;DHT22;10975;47.872;12.972;2024-03-02T11:39:50;11.20;99.90
21627;DHT22;10975;47.872;12.972;2024-03-02T11:42:17;11.30;99.90
21627;DHT22;10975;47.872;12.972;2024-03-02T11:44:46;11.50;99.90
21627;DHT22;10975;47.872;12.972;2024-03-02T11:47:17;11.50;99.90
21627;DHT22;10975;47.872;12.972;2024-03-02T11:49:50;11.60;99.90
21627;DHT22;10975;47.872;12.972;2024-03-02T11:52:22;11.70;99.90
21627;DHT22;10975;47.872;12.972;2024-03-02T11:54:50;11.70;99.90
21627;DHT22;10975;47.872;12.972;2024-03-02T11:57:19;11.80;99.90
21627;DHT22;10975;47.872;12.972;2024-03-02T11:59:47;11.80;99.90
21627;DHT22;10975;47.872;12.972;2024-03-02T12:02:18;11.80;99.90
21627;DHT22;10975;47.872;12.972;2024-03-02T12:04:46;11.80;99.90
21627;DHT22;10975;47.872;12.972;2024-03-02T12:07:19;11.80;99.90
21627;DHT22;10975;47.872;12.972;2024-03-02T12:09:48;11.80;99.90
21627;DHT22;10975;47.872;12.972;2024-03-02T12:12:15;12.00;99.90
21627;DHT22;10975;47.872;12.972;2024-03-02T12:14:51;12.00;99.90
21627;DHT22;10975;47.872;12.972;2024-03-02T12:17:19;12.00;99.90
21627;DHT22;10975;47.872;12.972;2024-03-02T12:19:45;12.10;99.90
21627;DHT22;10975;47.872;12.972;2024-03-02T12:22:12;12.10;99.90
21627;DHT22;10975;47.872;12.972;2024-03-02T12:24:39;12.20;99.90
21627;DHT22;10975;47.872;12.972;2024-03-02T12:27:07;12.10;99.90
21627;DHT22;10975;47.872;12.972;2024-03-02T12:29:35;12.10;99.90
21627;DHT22;10975;47.872;12.972;2024-03-02T12:32:02;12.10;99.90
21627;DHT22;10975;47.872;12.972;2024-03-02T12:34:29;12.30;99.90
21627;DHT22;10975;47.872;12.972;2024-03-02T12:36:55;12.30;99.90
21627;DHT22;10975;47.872;12.972;2024-03-02T12:39:22;12.30;99.90
21627;DHT22;10975;47.872;12.972;2024-03-02T12:41:50;12.30;99.90
21627;DHT22;10975;47.872;12.972;2024-03-02T12:44:17;12.30;99.90
21627;DHT22;10975;47.872;12.972;2024-03-02T12:46:46;12.50;99.90
21627;DHT22;10975;47.872;12.972;2024-03-02T12:49:14;12.60;99.90
21627;DHT22;10975;47.872;12.972;2024-03-02T12:51:44;12.60;99.90
21627;DHT22;10975;47.872;12.972;2024-03-02T12:54:14;12.70;99.90
21627;DHT22;10975;47.872;12.972;2024-03-02T12:56:41;12.80;99.90
21627;DHT22;10975;47.872;12.972;2024-03-02T12:59:20;12.70;99.90
21627;DHT22;10975;47.872;12.972;2024-03-02T13:01:55;12.70;99.90
21627;DHT22;10975;47.872;12.972;2024-03-02T13:04:26;12.80;99.90
21627;DHT22;10975;47.872;12.972;2024-03-02T13:06:53;12.80;99.90
21627;DHT22;10975;47.872;12.972;2024-03-02T13:09:22;12.80;99.90
21627;DHT22;10975;47.872;12.972;2024-03-02T13:11:50;12.70;99.90
21627;DHT22;10975;47.872;12.972;2024-03-02T13:14:17;12.70;99.90
21627;DHT22;10975;47.872;12.972;2024-03-02T13:16:44;12.70;99.90
21627;DHT22;10975;47.872;12.972;2024-03-02T13:19:13;12.80;99.90
21627;DHT22;10975;47.872;12.972;2024-03-02T13:21:41;12.80;99.90
21627;DHT22;10975;47.872;12.972;2024-03-02T13:24:08;12.90;99.90
21627;DHT22;10975;47.872;12.972;2024-03-02T13:26:35;12.90;99.90
21627;DHT22;10975;47.872;12.972;2024-03-02T13:29:02;12.90;99.90
21627;DHT22;10975;47.872;12.972;2024-03-02T13:31:29;12.90;99.90
21627;DHT22;10975;47.872;12.972;2024-03-02T13:33:56;12.90;99.90
21627;DHT22;10975;47.872;12.972;2024-03-02T13:36:23;12.90;99.90
21627;DHT22;10975;47.872;12.972;2024-03-02T13:38:50;12.90;99.90
21627;DHT22;10975;47.872;12.972;2024-03-02T13:41:17;12.90;99.90
21627;DHT22;10975;47.872;12.972;2024-03-02T13:43:44;12.90;99.90
21627;DHT22;10975;47.872;12.972;2024-03-02T13:46:12;12.90;99.90
21627;DHT22;10975;47.872;12.972;2024-03-02T13:48:39;12.90;99.90
21627;DHT22;10975;47.872;12.972;2024-03-02T13:51:05;12.90;99.90
21627;DHT22;10975;47.872;12.972;2024-03-02T13:53:32;12.90;99.90
21627;DHT22;10975;47.872;12.972;2024-03-02T13:55:59;12.90;99.90
21627;DHT22;10975;47.872;12.972;2024-03-02T13:58:26;12.90;99.90
21627;DHT22;10975;47.872;12.972;2024-03-02T14:00:53;13.00;99.90
21627;DHT22;10975;47.872;12.972;2024-03-02T14:03:20;13.00;99.90
21627;DHT22;10975;47.872;12.972;2024-03-02T14:05:49;13.00;99.90
21627;DHT22;10975;47.872;12.972;2024-03-02T14:08:17;13.00;99.90
21627;DHT22;10975;47.872;12.972;2024-03-02T14:10:44;13.00;99.90
21627;DHT22;10975;47.872;12.972;2024-03-02T14:13:11;13.10;99.90
21627;DHT22;10975;47.872;12.972;2024-03-02T14:15:38;13.00;99.90
21627;DHT22;10975;47.872;12.972;2024-03-02T14:18:06;13.10;99.90
21627;DHT22;10975;47.872;12.972;2024-03-02T14:20:33;13.10;99.90
21627;DHT22;10975;47.872;12.972;2024-03-02T14:22:59;13.10;99.90
21627;DHT22;10975;47.872;12.972;2024-03-02T14:25:27;13.10;99.90
21627;DHT22;10975;47.872;12.972;2024-03-02T14:27:58;13.10;99.90
21627;DHT22;10975;47.872;12.972;2024-03-02T14:30:44;13.10;99.90
21627;DHT22;10975;47.872;12.972;2024-03-02T14:33:11;13.10;99.90
21627;DHT22;10975;47.872;12.972;2024-03-02T14:35:38;13.10;99.90
21627;DHT22;10975;47.872;12.972;2024-03-02T14:38:05;13.10;99.90
21627;DHT22;10975;47.872;12.972;2024-03-02T14:40:32;13.10;99.90
21627;DHT22;10975;47.872;12.972;2024-03-02T14:42:59;13.00;99.90
21627;DHT22;10975;47.872;12.972;2024-03-02T14:45:26;13.00;99.90
21627;DHT22;10975;47.872;12.972;2024-03-02T14:47:53;13.00;99.90
21627;DHT22;10975;47.872;12.972;2024-03-02T14:50:20;13.00;99.90
21627;DHT22;10975;47.872;12.972;2024-03-02T14:52:47;13.00;99.90
21627;DHT22;10975;47.872;12.972;2024-03-02T14:55:14;13.10;99.90
21627;DHT22;10975;47.872;12.972;2024-03-02T14:57:41;13.00;99.90
21627;DHT22;10975;47.872;12.972;2024-03-02T15:00:08;12.90;99.90
21627;DHT22;10975;47.872;12.972;2024-03-02T15:02:38;12.90;99.90
21627;DHT22;10975;47.872;12.972;2024-03-02T15:05:04;12.90;99.90
21627;DHT22;10975;47.872;12.972;2024-03-02T15:07:34;12.90;99.90
21627;DHT22;10975;47.872;12.972;2024-03-02T15:10:01;12.90;99.90
21627;DHT22;10975;47.872;12.972;2024-03-02T15:12:28;12.90;99.90
21627;DHT22;10975;47.872;12.972;2024-03-02T15:14:55;12.80;99.90
21627;DHT22;10975;47.872;12.972;2024-03-02T15:17:22;12.80;99.90
21627;DHT22;10975;47.872;12.972;2024-03-02T15:19:49;12.90;99.90
21627;DHT22;10975;47.872;12.972;2024-03-02T15:22:15;12.80;99.90
21627;DHT22;10975;47.872;12.972;2024-03-02T15:24:43;12.80;99.90
21627;DHT22;10975;47.872;12.972;2024-03-02T15:27:10;12.70;99.90
21627;DHT22;10975;47.872;12.972;2024-03-02T15:29:37;12.60;99.90
21627;DHT22;10975;47.872;12.972;2024-03-02T15:32:04;12.50;99.90
21627;DHT22;10975;47.872;12.972;2024-03-02T15:34:34;12.50;99.90
21627;DHT22;10975;47.872;12.972;2024-03-02T15:37:01;12.50;99.90
21627;DHT22;10975;47.872;12.972;2024-03-02T15:39:30;12.50;99.90